Time;durP1;ratioP1;P1;durP2;ratioP2;P2;SDS_P1;SDS_P2;PMS_P1;PMS_P2;Temp;Humidity;BMP_temperature;BMP_pressure;BME280_temperature;BME280_humidity;BME280_pressure;Samples;Min_cycle;Max_cycle;Signal;HPM_P1;HPM_P2
2023/05/05 00:01:42;;;;;;;;;;;14.90;99.90;;;;;;4952202;29;20260;-76
2023/05/05 00:04:08;;;;;;;;;;;;;;;;;;4948654;28;19965;-78
2023/05/05 00:06:34;;;;;;;;;;;;;;;;;;4953944;29;19961;-74
2023/05/05 00:08:59;;;;;;;;;;;;;;;;;;4952950;29;20359;-78
2023/05/05 00:11:25;;;;;;;;;;;;;;;;;;4954266;29;19911;-77
2023/05/05 00:13:51;;;;;;;;;;;;;;;;;;4952598;29;20313;-76
2023/05/05 00:16:17;;;;;;;;;;;;;;;;;;4953446;29;19979;-75
2023/05/05 00:18:43;;;;;;;;;;;;;;;;;;4952706;29;19985;-77
2023/05/05 00:21:09;;;;;;;;;;;;;;;;;;4950907;28;20386;-78
2023/05/05 00:23:35;;;;;;;;;;;;;;;;;;4952320;29;19917;-75
2023/05/05 00:26:01;;;;;;;;;;;;;;;;;;4953562;29;21614;-79
2023/05/05 00:28:26;;;;;;;;;;;;;;;;;;4953804;29;19911;-79
2023/05/05 00:30:52;;;;;;;;;;;14.70;99.90;;;;;;4953561;29;20426;-78
2023/05/05 00:33:17;;;;;;;;;;;14.70;99.90;;;;;;4953101;29;19911;-78
2023/05/05 00:35:43;;;;;;;;;;;14.60;99.90;;;;;;4953040;29;19918;-77
2023/05/05 00:38:09;;;;;;;;;;;14.50;99.90;;;;;;4948913;28;19919;-76
2023/05/05 00:40:35;;;;;;;;;;;14.40;99.90;;;;;;4953961;29;19965;-74
2023/05/05 00:43:00;;;;;;;;;;;14.40;99.90;;;;;;4953140;29;20057;-77
2023/05/05 00:45:26;;;;;;;;;;;14.40;99.90;;;;;;4954187;28;20041;-76
2023/05/05 00:47:52;;;;;;;;;;;14.30;99.90;;;;;;4956176;29;19984;-77
2023/05/05 00:50:22;;;;;;;;;;;14.30;99.90;;;;;;4957262;29;20312;-78
2023/05/05 00:52:48;;;;;;;;;;;14.30;99.90;;;;;;4956443;29;19910;-78
2023/05/05 00:55:14;;;;;;;;;;;14.20;99.90;;;;;;4956728;28;19918;-76
2023/05/05 00:57:39;;;;;;;;;;;14.20;99.90;;;;;;4952661;28;20001;-77
2023/05/05 01:00:08;;;;;;;;;;;14.20;99.90;;;;;;4957687;29;19966;-77
2023/05/05 01:02:34;;;;;;;;;;;14.20;99.90;;;;;;4956310;29;19993;-74
2023/05/05 01:04:59;;;;;;;;;;;14.20;99.90;;;;;;4956348;29;20066;-78
2023/05/05 01:07:25;;;;;;;;;;;14.20;99.90;;;;;;4956873;29;19911;-78
2023/05/05 01:09:53;;;;;;;;;;;14.20;99.90;;;;;;4956617;29;19914;-78
2023/05/05 01:12:31;;;;;;;;;;;14.10;99.90;;;;;;4952818;29;19987;-78
2023/05/05 01:15:01;;;;;;;;;;;14.10;99.90;;;;;;4953044;28;20059;-78
2023/05/05 01:17:32;;;;;;;;;;;14.10;99.90;;;;;;4956219;29;19965;-79
2023/05/05 01:20:01;;;;;;;;;;;14.10;99.90;;;;;;4956284;29;19910;-77
2023/05/05 01:22:30;;;;;;;;;;;14.10;99.90;;;;;;4956099;29;19921;-78
2023/05/05 01:25:02;;;;;;;;;;;14.10;99.90;;;;;;4955994;29;19921;-77
2023/05/05 01:27:30;;;;;;;;;;;14.10;99.90;;;;;;4956794;29;19910;-77
2023/05/05 01:30:28;;;;;;;;;;;14.10;99.90;;;;;;4956554;29;19936;-77
2023/05/05 01:32:57;;;;;;;;;;;14.10;99.90;;;;;;4913263;29;19914;-76
2023/05/05 01:35:28;;;;;;;;;;;14.10;99.90;;;;;;4944261;28;19926;-77
2023/05/05 01:37:57;;;;;;;;;;;14.00;99.90;;;;;;4955255;29;19917;-77
2023/05/05 01:40:30;;;;;;;;;;;14.00;99.90;;;;;;4956905;29;19918;-76
2023/05/05 01:42:57;;;;;;;;;;;14.00;99.90;;;;;;4938932;29;20905;-77
2023/05/05 01:45:28;;;;;;;;;;;13.90;99.90;;;;;;4957095;29;19910;-76
2023/05/05 01:48:03;;;;;;;;;;;14.00;99.90;;;;;;4955439;29;20569;-76
2023/05/05 01:50:29;;;;;;;;;;;13.90;99.90;;;;;;4952571;29;19970;-77
2023/05/05 01:53:02;;;;;;;;;;;13.90;99.90;;;;;;4956199;29;20022;-78
2023/05/05 01:55:29;;;;;;;;;;;13.90;99.90;;;;;;4953266;28;19980;-75
2023/05/05 01:57:58;;;;;;;;;;;13.80;99.90;;;;;;4955481;28;20470;-76
2023/05/05 02:00:24;;;;;;;;;;;13.80;99.90;;;;;;4957382;29;19911;-77
2023/05/05 02:02:53;;;;;;;;;;;13.70;99.90;;;;;;4955564;29;20001;-76
2023/05/05 02:05:25;;;;;;;;;;;13.70;99.90;;;;;;4956401;28;19918;-77
2023/05/05 02:07:55;;;;;;;;;;;13.70;99.90;;;;;;4955752;29;20048;-77
2023/05/05 02:10:26;;;;;;;;;;;13.70;99.90;;;;;;4955774;29;20435;-77
2023/05/05 02:12:55;;;;;;;;;;;13.70;99.90;;;;;;4952857;28;19914;-78
2023/05/05 02:15:21;;;;;;;;;;;13.70;99.90;;;;;;4958338;28;20295;-77
2023/05/05 02:17:47;;;;;;;;;;;13.70;99.90;;;;;;4954245;28;19922;-79
2023/05/05 02:20:13;;;;;;;;;;;13.70;99.90;;;;;;4954978;29;20340;-76
2023/05/05 02:22:39;;;;;;;;;;;13.70;99.90;;;;;;4953237;29;19993;-77
2023/05/05 02:25:10;;;;;;;;;;;13.70;99.90;;;;;;4954424;29;19910;-77
2023/05/05 02:27:36;;;;;;;;;;;13.70;99.90;;;;;;4953927;29;20032;-73
2023/05/05 02:30:05;;;;;;;;;;;13.70;99.90;;;;;;4952443;28;19918;-75
2023/05/05 02:32:38;;;;;;;;;;;13.70;99.90;;;;;;4957005;28;19921;-77
2023/05/05 02:35:14;;;;;;;;;;;13.70;99.90;;;;;;4945221;29;20323;-77
2023/05/05 02:37:43;;;;;;;;;;;13.70;99.90;;;;;;4952759;29;19922;-77
2023/05/05 02:40:10;;;;;;;;;;;13.70;99.90;;;;;;4954361;29;19910;-76
2023/05/05 02:42:38;;;;;;;;;;;13.70;99.90;;;;;;4953357;29;19997;-75
2023/05/05 02:45:11;;;;;;;;;;;13.70;99.90;;;;;;4953266;29;20630;-77
2023/05/05 02:47:36;;;;;;;;;;;13.80;99.90;;;;;;4949757;28;19918;-75
2023/05/05 02:50:02;;;;;;;;;;;12.90;99.90;;;;;;4958262;28;19911;-77
2023/05/05 02:52:28;;;;;;;;;;;13.70;99.90;;;;;;4953752;29;20008;-78
2023/05/05 02:54:54;;;;;;;;;;;13.60;99.90;;;;;;4953430;29;20013;-77
2023/05/05 02:57:21;;;;;;;;;;;13.60;99.90;;;;;;4953830;29;19921;-78
2023/05/05 03:00:00;;;;;;;;;;;13.50;99.90;;;;;;4936371;29;19914;-78
2023/05/05 03:02:38;;;;;;;;;;;13.40;99.90;;;;;;4953512;29;19917;-77
2023/05/05 03:05:12;;;;;;;;;;;13.40;99.90;;;;;;4953446;28;20371;-77
2023/05/05 03:07:50;;;;;;;;;;;13.40;99.90;;;;;;4943517;28;19917;-77
2023/05/05 03:10:17;;;;;;;;;;;13.30;99.90;;;;;;4934618;29;20206;-77
2023/05/05 03:12:45;;;;;;;;;;;13.40;99.90;;;;;;4950903;29;19910;-76
2023/05/05 03:15:11;;;;;;;;;;;13.40;99.90;;;;;;4952667;29;20284;-77
2023/05/05 03:17:37;;;;;;;;;;;13.50;99.90;;;;;;4952199;29;19914;-75
2023/05/05 03:20:06;;;;;;;;;;;13.60;99.90;;;;;;4953749;29;20069;-79
2023/05/05 03:22:35;;;;;;;;;;;13.80;99.90;;;;;;4953489;29;19917;-76
2023/05/05 03:25:10;;;;;;;;;;;13.90;99.90;;;;;;4948391;28;20347;-78
2023/05/05 03:27:42;;;;;;;;;;;14.00;99.90;;;;;;4952452;29;19932;-74
2023/05/05 03:30:11;;;;;;;;;;;14.10;99.90;;;;;;4953509;29;20304;-76
2023/05/05 03:32:39;;;;;;;;;;;14.20;99.90;;;;;;4952495;29;19914;-74
2023/05/05 03:35:04;;;;;;;;;;;14.30;99.90;;;;;;4953631;29;19950;-75
2023/05/05 03:37:30;;;;;;;;;;;14.30;99.90;;;;;;4952474;29;19953;-72
2023/05/05 03:40:01;;;;;;;;;;;14.40;99.90;;;;;;4952656;29;19977;-78
2023/05/05 03:42:28;;;;;;;;;;;14.50;99.90;;;;;;4950477;28;19914;-74
2023/05/05 03:44:54;;;;;;;;;;;14.50;99.90;;;;;;4952656;29;19941;-75
2023/05/05 03:47:19;;;;;;;;;;;14.50;99.90;;;;;;4952589;29;19953;-76
2023/05/05 03:49:48;;;;;;;;;;;14.60;99.90;;;;;;4952549;29;19917;-77
2023/05/05 03:52:16;;;;;;;;;;;14.60;99.90;;;;;;4952916;29;19910;-77
2023/05/05 03:54:48;;;;;;;;;;;14.70;99.90;;;;;;4952346;29;19915;-76
2023/05/05 03:57:13;;;;;;;;;;;14.70;99.90;;;;;;4951384;28;20456;-77
2023/05/05 03:59:42;;;;;;;;;;;14.80;99.90;;;;;;4948156;28;19993;-75
2023/05/05 04:02:13;;;;;;;;;;;14.80;99.90;;;;;;4945221;29;19949;-77
2023/05/05 04:04:41;;;;;;;;;;;14.90;99.90;;;;;;4946511;29;19918;-75
2023/05/05 04:07:10;;;;;;;;;;;14.90;99.90;;;;;;4953156;29;19929;-80
2023/05/05 04:09:35;;;;;;;;;;;15.00;99.90;;;;;;4952110;29;20374;-74
2023/05/05 04:12:03;;;;;;;;;;;15.10;99.90;;;;;;4947478;29;20006;-77
2023/05/05 04:14:29;;;;;;;;;;;15.10;99.90;;;;;;4946481;29;19930;-77
2023/05/05 04:16:57;;;;;;;;;;;15.10;99.90;;;;;;4945705;28;19921;-76
2023/05/05 04:19:22;;;;;;;;;;;15.20;99.90;;;;;;4948413;29;19911;-77
2023/05/05 04:21:50;;;;;;;;;;;15.30;99.90;;;;;;4948212;29;19910;-77
2023/05/05 04:24:23;;;;;;;;;;;15.30;99.90;;;;;;4949618;29;20021;-77
2023/05/05 04:26:55;;;;;;;;;;;15.30;99.90;;;;;;4950325;29;19911;-77
2023/05/05 04:29:25;;;;;;;;;;;15.40;99.90;;;;;;4951527;29;19910;-76
2023/05/05 04:31:52;;;;;;;;;;;15.40;99.90;;;;;;4947348;28;19918;-78
2023/05/05 04:34:18;;;;;;;;;;;15.40;99.90;;;;;;4950422;29;19915;-77
2023/05/05 04:36:46;;;;;;;;;;;15.50;99.90;;;;;;4947972;29;19915;-78
2023/05/05 04:39:12;;;;;;;;;;;15.50;99.90;;;;;;4951218;29;19914;-77
2023/05/05 04:41:37;;;;;;;;;;;15.60;99.90;;;;;;4949955;29;19966;-74
2023/05/05 04:44:02;;;;;;;;;;;15.60;99.90;;;;;;4955331;29;19910;-78
2023/05/05 04:46:34;;;;;;;;;;;15.70;99.90;;;;;;4949690;29;19956;-77
2023/05/05 04:48:59;;;;;;;;;;;15.70;99.90;;;;;;4947445;29;20005;-77
2023/05/05 04:51:31;;;;;;;;;;;15.70;99.90;;;;;;4949788;28;20001;-76
2023/05/05 04:53:56;;;;;;;;;;;15.80;99.90;;;;;;4951450;29;19930;-76
2023/05/05 04:56:22;;;;;;;;;;;15.90;99.90;;;;;;4947082;29;20288;-76
2023/05/05 04:58:51;;;;;;;;;;;16.00;99.90;;;;;;4951176;29;19911;-77
2023/05/05 05:01:17;;;;;;;;;;;16.10;99.90;;;;;;4950456;29;19911;-76
2023/05/05 05:03:42;;;;;;;;;;;16.10;99.90;;;;;;4950855;29;19923;-77
2023/05/05 05:06:10;;;;;;;;;;;16.30;99.90;;;;;;4950749;28;20351;-76
2023/05/05 05:08:36;;;;;;;;;;;16.40;99.90;;;;;;4949305;28;20037;-74
2023/05/05 05:11:09;;;;;;;;;;;16.60;99.90;;;;;;4949091;29;19911;-76
2023/05/05 05:13:34;;;;;;;;;;;16.50;99.90;;;;;;4949505;29;19918;-75
2023/05/05 05:16:02;;;;;;;;;;;16.40;99.90;;;;;;4948200;29;19915;-76
2023/05/05 05:18:30;;;;;;;;;;;16.40;99.90;;;;;;4952441;29;19918;-76
2023/05/05 05:20:58;;;;;;;;;;;16.30;99.90;;;;;;4947855;29;19911;-76
2023/05/05 05:23:29;;;;;;;;;;;16.20;99.90;;;;;;4945324;28;19917;-78
2023/05/05 05:25:57;;;;;;;;;;;16.20;99.90;;;;;;4950545;29;19923;-77
2023/05/05 05:28:22;;;;;;;;;;;16.20;99.90;;;;;;4951048;29;19914;-77
2023/05/05 05:30:50;;;;;;;;;;;16.20;99.90;;;;;;4947176;28;20424;-77
2023/05/05 05:33:16;;;;;;;;;;;16.20;99.90;;;;;;4950525;28;19918;-77
2023/05/05 05:35:41;;;;;;;;;;;16.30;99.90;;;;;;4952775;29;19915;-77
2023/05/05 05:38:17;;;;;;;;;;;16.40;99.90;;;;;;4955361;29;19921;-77
2023/05/05 05:40:43;;;;;;;;;;;16.60;99.90;;;;;;4954162;29;19995;-77
2023/05/05 05:43:31;;;;;;;;;;;16.70;99.90;;;;;;4955305;29;19920;-77
2023/05/05 05:46:00;;;;;;;;;;;16.80;99.90;;;;;;4951829;29;19920;-75
2023/05/05 05:48:28;;;;;;;;;;;16.90;99.90;;;;;;4953380;28;19909;-78
2023/05/05 05:51:02;;;;;;;;;;;16.90;99.90;;;;;;4957427;28;19961;-77
2023/05/05 05:53:28;;;;;;;;;;;16.90;99.90;;;;;;4948116;29;20343;-76
2023/05/05 05:55:53;;;;;;;;;;;16.90;99.90;;;;;;4954557;29;19960;-74
2023/05/05 05:58:19;;;;;;;;;;;17.00;99.90;;;;;;4954750;29;19965;-74
2023/05/05 06:00:48;;;;;;;;;;;17.10;99.90;;;;;;4954437;29;19910;-75
2023/05/05 06:03:16;;;;;;;;;;;17.30;99.90;;;;;;4955003;29;20331;-76
2023/05/05 06:05:47;;;;;;;;;;;17.50;99.90;;;;;;4949479;28;19934;-76
2023/05/05 06:08:12;;;;;;;;;;;17.70;99.90;;;;;;4953712;29;19910;-76
2023/05/05 06:10:38;;;;;;;;;;;17.90;99.90;;;;;;4954110;29;19918;-76
2023/05/05 06:13:09;;;;;;;;;;;18.10;99.90;;;;;;4954554;29;19916;-76
2023/05/05 06:15:34;;;;;;;;;;;18.20;99.90;;;;;;4954424;29;19922;-75
2023/05/05 06:18:03;;;;;;;;;;;18.30;99.90;;;;;;4952740;29;19915;-76
2023/05/05 06:20:28;;;;;;;;;;;18.40;99.90;;;;;;4954827;29;19930;-76
2023/05/05 06:22:54;;;;;;;;;;;18.40;99.90;;;;;;4948667;28;19906;-76
2023/05/05 06:25:19;;;;;;;;;;;18.50;99.90;;;;;;4954184;29;19914;-76
2023/05/05 06:27:48;;;;;;;;;;;18.60;99.90;;;;;;4953469;29;20351;-75
2023/05/05 06:30:13;;;;;;;;;;;18.70;99.90;;;;;;4953781;29;19910;-76
2023/05/05 06:32:39;;;;;;;;;;;18.70;99.90;;;;;;4953344;29;19917;-75
2023/05/05 06:35:05;;;;;;;;;;;18.70;99.90;;;;;;4954453;29;20410;-76
2023/05/05 06:37:30;;;;;;;;;;;18.80;99.90;;;;;;4954311;29;19914;-76
2023/05/05 06:39:56;;;;;;;;;;;18.80;99.90;;;;;;4949455;28;20025;-76
2023/05/05 06:42:26;;;;;;;;;;;18.90;99.90;;;;;;4952949;29;20386;-76
2023/05/05 06:44:52;;;;;;;;;;;19.10;99.90;;;;;;4952707;28;19910;-76
2023/05/05 06:47:17;;;;;;;;;;;19.30;99.90;;;;;;4953826;29;20323;-76
2023/05/05 06:49:43;;;;;;;;;;;19.60;99.90;;;;;;4953406;29;19919;-76
2023/05/05 06:52:08;;;;;;;;;;;19.80;99.90;;;;;;4953955;29;19961;-76
2023/05/05 06:54:34;;;;;;;;;;;19.90;99.90;;;;;;4953939;29;20382;-75
2023/05/05 06:57:02;;;;;;;;;;;20.10;99.90;;;;;;4944926;29;20363;-73
2023/05/05 06:59:31;;;;;;;;;;;20.20;99.90;;;;;;4948893;28;19950;-74
2023/05/05 07:01:56;;;;;;;;;;;20.30;99.90;;;;;;4952661;29;20000;-74
2023/05/05 07:04:22;;;;;;;;;;;20.30;99.90;;;;;;4953372;28;19918;-76
2023/05/05 07:06:47;;;;;;;;;;;20.40;99.90;;;;;;4952603;29;19914;-74
2023/05/05 07:09:15;;;;;;;;;;;20.40;99.90;;;;;;4954329;29;19910;-73
2023/05/05 07:11:45;;;;;;;;;;;20.50;99.90;;;;;;4952276;29;19914;-73
2023/05/05 07:14:10;;;;;;;;;;;20.50;99.90;;;;;;4949476;28;20371;-76
2023/05/05 07:16:39;;;;;;;;;;;20.50;99.90;;;;;;4935970;29;19957;-74
2023/05/05 07:19:05;;;;;;;;;;;20.60;99.90;;;;;;4952845;29;19972;-72
2023/05/05 07:21:32;;;;;;;;;;;20.70;99.90;;;;;;4953507;29;19911;-73
2023/05/05 07:23:57;;;;;;;;;;;20.70;99.90;;;;;;4950417;29;19910;-73
2023/05/05 07:26:26;;;;;;;;;;;20.70;99.90;;;;;;4952127;29;19917;-73
2023/05/05 07:28:51;;;;;;;;;;;20.70;99.90;;;;;;4951318;29;19918;-73
2023/05/05 07:31:20;;;;;;;;;;;20.70;99.90;;;;;;4949734;28;19977;-74
2023/05/05 07:33:46;;;;;;;;;;;20.70;99.90;;;;;;4950597;28;19910;-73
2023/05/05 07:36:12;;;;;;;;;;;20.60;99.90;;;;;;4952199;29;20335;-75
2023/05/05 07:38:43;;;;;;;;;;;20.60;99.90;;;;;;4951443;29;19911;-73
2023/05/05 07:41:11;;;;;;;;;;;20.50;99.90;;;;;;4952798;29;19910;-74
2023/05/05 07:43:39;;;;;;;;;;;20.50;99.90;;;;;;4934519;29;19949;-74
2023/05/05 07:46:05;;;;;;;;;;;20.60;99.90;;;;;;4951556;29;19917;-74
2023/05/05 07:48:33;;;;;;;;;;;20.60;99.90;;;;;;4948725;28;19918;-74
2023/05/05 07:51:02;;;;;;;;;;;20.60;99.90;;;;;;4952145;29;19917;-74
2023/05/05 07:53:28;;;;;;;;;;;20.60;99.90;;;;;;4948230;29;19910;-75
2023/05/05 07:55:56;;;;;;;;;;;20.40;99.90;;;;;;4952885;28;20002;-75
2023/05/05 07:58:24;;;;;;;;;;;20.30;99.90;;;;;;4956427;29;19945;-75
2023/05/05 08:00:50;;;;;;;;;;;20.30;99.90;;;;;;4956471;29;19906;-74
2023/05/05 08:03:22;;;;;;;;;;;20.20;99.90;;;;;;4956591;29;19954;-75
2023/05/05 08:06:04;;;;;;;;;;;20.00;99.90;;;;;;4955628;28;19919;-75
2023/05/05 08:08:32;;;;;;;;;;;19.80;99.90;;;;;;4952431;28;19917;-74
2023/05/05 08:11:07;;;;;;;;;;;19.50;99.90;;;;;;4955992;29;19929;-74
2023/05/05 08:13:35;;;;;;;;;;;19.30;99.90;;;;;;4953948;29;19906;-83
2023/05/05 08:16:03;;;;;;;;;;;19.00;99.90;;;;;;4955140;29;19966;-76
2023/05/05 08:18:29;;;;;;;;;;;18.70;99.90;;;;;;4956032;29;20001;-75
2023/05/05 08:20:54;;;;;;;;;;;18.50;99.90;;;;;;4956436;29;19946;-76
2023/05/05 08:23:20;;;;;;;;;;;18.30;99.90;;;;;;4951366;28;20371;-78
2023/05/05 08:25:46;;;;;;;;;;;18.20;99.90;;;;;;4956156;29;20020;-77
2023/05/05 08:28:17;;;;;;;;;;;18.20;99.90;;;;;;4956598;29;19962;-76
2023/05/05 08:30:43;;;;;;;;;;;18.20;99.90;;;;;;4955879;29;20229;-76
2023/05/05 08:33:11;;;;;;;;;;;18.20;99.90;;;;;;4954907;29;19917;-77
2023/05/05 08:35:39;;;;;;;;;;;18.30;99.90;;;;;;4955745;29;19911;-76
2023/05/05 08:38:05;;;;;;;;;;;18.30;99.90;;;;;;4952962;29;19914;-76
2023/05/05 08:40:32;;;;;;;;;;;18.30;99.90;;;;;;4946964;28;19969;-80
2023/05/05 08:43:03;;;;;;;;;;;18.30;99.90;;;;;;4969598;28;19906;-76
2023/05/05 08:45:32;;;;;;;;;;;18.40;99.90;;;;;;4975377;28;19985;-76
2023/05/05 08:48:01;;;;;;;;;;;18.50;99.90;;;;;;4974605;28;19988;-77
2023/05/05 08:50:30;;;;;;;;;;;18.70;99.90;;;;;;4975644;28;20477;-75
2023/05/05 08:53:15;;;;;;;;;;;18.80;99.90;;;;;;4974714;28;20466;-77
2023/05/05 08:55:44;;;;;;;;;;;19.00;99.90;;;;;;4974079;28;19917;-76
2023/05/05 08:58:09;;;;;;;;;;;19.20;99.90;;;;;;4958063;28;19914;-77
2023/05/05 09:00:42;;;;;;;;;;;19.30;99.90;;;;;;4955842;29;19906;-80
2023/05/05 09:03:08;;;;;;;;;;;19.40;99.90;;;;;;4954839;29;19918;-77
2023/05/05 09:05:37;;;;;;;;;;;19.60;99.90;;;;;;4957061;29;19918;-78
2023/05/05 09:08:07;;;;;;;;;;;19.60;99.90;;;;;;4954095;28;20288;-77
2023/05/05 09:10:36;;;;;;;;;;;19.70;99.90;;;;;;4956142;29;20339;-75
2023/05/05 09:13:04;;;;;;;;;;;19.80;99.90;;;;;;4955604;29;19947;-77
2023/05/05 09:15:33;;;;;;;;;;;19.80;99.90;;;;;;4951074;28;19910;-80
2023/05/05 09:18:05;;;;;;;;;;;19.90;99.90;;;;;;4955418;29;19961;-83
2023/05/05 09:20:34;;;;;;;;;;;20.00;99.90;;;;;;4956182;29;20352;-77
2023/05/05 09:23:26;;;;;;;;;;;20.10;99.90;;;;;;4956099;29;19907;-77
2023/05/05 09:26:07;;;;;;;;;;;20.10;99.90;;;;;;4951966;29;19917;-78
2023/05/05 09:28:36;;;;;;;;;;;20.20;99.90;;;;;;4938258;29;19906;-80
2023/05/05 09:31:12;;;;;;;;;;;20.40;99.90;;;;;;4951317;28;19907;-77
2023/05/05 09:33:41;;;;;;;;;;;20.50;99.90;;;;;;4953388;29;19910;-79
2023/05/05 09:36:12;;;;;;;;;;;20.60;99.90;;;;;;4956310;29;19973;-78
2023/05/05 09:38:41;;;;;;;;;;;20.70;99.90;;;;;;4938506;29;20537;-79
2023/05/05 09:41:09;;;;;;;;;;;20.80;99.90;;;;;;4955927;29;20001;-78
2023/05/05 09:43:52;;;;;;;;;;;20.90;99.90;;;;;;4936336;29;20434;-77
2023/05/05 09:46:18;;;;;;;;;;;21.00;99.90;;;;;;4951000;28;19913;-78
2023/05/05 09:48:46;;;;;;;;;;;21.10;99.90;;;;;;4961218;28;20009;-79
2023/05/05 09:51:15;;;;;;;;;;;21.20;99.90;;;;;;4955529;29;19913;-79
2023/05/05 09:53:42;;;;;;;;;;;21.20;99.90;;;;;;4955246;29;20264;-77
2023/05/05 09:56:11;;;;;;;;;;;21.50;99.90;;;;;;4955417;29;19965;-78
2023/05/05 09:58:36;;;;;;;;;;;21.90;99.90;;;;;;4955080;29;19906;-77
2023/05/05 10:01:02;;;;;;;;;;;22.10;99.90;;;;;;4954990;29;20377;-77
2023/05/05 10:03:27;;;;;;;;;;;22.30;99.90;;;;;;4952776;28;19906;-79
2023/05/05 10:05:56;;;;;;;;;;;22.50;99.90;;;;;;4950846;28;20526;-78
2023/05/05 10:08:26;;;;;;;;;;;22.80;99.90;;;;;;4954740;29;19907;-79
2023/05/05 10:10:59;;;;;;;;;;;23.00;99.90;;;;;;4954753;29;19998;-80
2023/05/05 10:13:25;;;;;;;;;;;23.10;99.70;;;;;;4954642;29;19907;-82
2023/05/05 10:15:52;;;;;;;;;;;23.20;99.90;;;;;;4954123;29;19917;-80
2023/05/05 10:18:19;;;;;;;;;;;23.20;99.50;;;;;;4955560;28;20009;-79
2023/05/05 10:20:50;;;;;;;;;;;23.20;99.50;;;;;;4950939;28;20382;-80
2023/05/05 10:23:20;;;;;;;;;;;23.00;98.90;;;;;;4954870;29;19941;-79
2023/05/05 10:25:49;;;;;;;;;;;22.90;99.40;;;;;;4954527;29;19907;-78
2023/05/05 10:28:18;;;;;;;;;;;22.70;99.40;;;;;;4953895;29;19906;-77
2023/05/05 10:30:44;;;;;;;;;;;22.50;99.40;;;;;;4949213;28;20431;-76
2023/05/05 10:33:25;;;;;;;;;;;22.30;99.50;;;;;;4952447;29;19914;-76
2023/05/05 10:35:58;;;;;;;;;;;22.10;99.40;;;;;;4942199;29;19918;-78
2023/05/05 10:38:30;;;;;;;;;;;22.10;99.70;;;;;;4948478;28;19918;-80
2023/05/05 10:41:01;;;;;;;;;;;22.10;99.70;;;;;;4957490;28;19921;-75
2023/05/05 10:43:35;;;;;;;;;;;22.10;99.90;;;;;;4943019;29;19917;-77
2023/05/05 10:46:01;;;;;;;;;;;22.00;99.90;;;;;;4941235;29;19918;-76
2023/05/05 10:48:41;;;;;;;;;;;22.00;99.90;;;;;;4953899;29;19910;-78
2023/05/05 10:51:16;;;;;;;;;;;21.90;99.90;;;;;;4953688;29;19911;-76
2023/05/05 12:14:14;;;;;;;;;;;24.80;96.30;;;;;;4387586;23;19930;-72
2023/05/05 12:25:14;;;;;;;;;;;25.40;93.80;;;;;;4997021;28;19921;-72
2023/05/05 12:27:50;;;;;;;;;;;25.50;93.90;;;;;;4999665;28;19968;-71
2023/05/05 12:30:16;;;;;;;;;;;25.50;93.50;;;;;;5002943;28;20052;-73
2023/05/05 12:32:42;;;;;;;;;;;25.50;93.20;;;;;;5005526;28;19956;-72
2023/05/05 12:35:08;;;;;;;;;;;25.30;93.00;;;;;;5001491;28;20439;-72
2023/05/05 12:37:34;;;;;;;;;;;25.00;92.30;;;;;;4993033;28;19914;-73
2023/05/05 12:39:59;;;;;;;;;;;24.60;92.60;;;;;;5006581;28;19909;-72
2023/05/05 12:42:25;;;;;;;;;;;24.30;93.40;;;;;;5007104;28;19910;-73
2023/05/05 12:44:51;;;;;;;;;;;24.10;93.60;;;;;;5006974;28;19941;-71
2023/05/05 12:47:30;;;;;;;;;;;24.00;93.30;;;;;;4993613;28;19967;-72
2023/05/05 13:02:08;;;;;;;;;;;24.80;92.30;;;;;;5268170;23;20400;-75
2023/05/05 13:04:46;;;;;;;;;;;24.90;91.90;;;;;;4991486;28;19914;-74
2023/05/05 13:07:12;;;;;;;;;;;25.00;91.80;;;;;;4991685;28;19955;-74
2023/05/05 13:09:38;;;;;;;;;;;25.20;91.30;;;;;;4984668;28;19956;-72
2023/05/05 13:12:04;;;;;;;;;;;25.20;91.60;;;;;;4970398;28;20354;-74
2023/05/05 13:14:35;;;;;;;;;;;25.40;91.20;;;;;;4992349;28;20037;-73
2023/05/05 13:17:01;;;;;;;;;;;25.90;90.90;;;;;;4991036;28;19910;-73
2023/05/05 13:19:26;;;;;;;;;;;26.10;90.00;;;;;;4989950;28;19910;-73
2023/05/05 13:21:52;;;;;;;;;;;26.20;90.30;;;;;;4980337;28;19945;-76
2023/05/05 13:24:18;;;;;;;;;;;26.50;90.20;;;;;;4992092;28;19929;-74
2023/05/05 13:26:43;;;;;;;;;;;26.90;87.40;;;;;;4984519;28;19905;-75
2023/05/05 13:29:09;;;;;;;;;;;27.00;87.30;;;;;;4992292;28;21114;-73
2023/05/05 13:31:34;;;;;;;;;;;27.00;84.80;;;;;;4991790;28;19905;-73
2023/05/05 13:34:00;;;;;;;;;;;26.80;86.60;;;;;;4983232;28;20377;-75
2023/05/05 13:36:25;;;;;;;;;;;26.70;88.00;;;;;;5004415;28;20293;-74
2023/05/05 13:38:51;;;;;;;;;;;26.70;86.40;;;;;;4999963;28;20020;-75
2023/05/05 13:41:17;;;;;;;;;;;26.50;85.90;;;;;;5014433;28;19912;-75
2023/05/05 13:43:42;;;;;;;;;;;26.20;85.00;;;;;;5009860;28;19906;-79
2023/05/05 13:46:11;;;;;;;;;;;25.80;86.80;;;;;;4998347;28;19913;-78
2023/05/05 13:48:39;;;;;;;;;;;25.50;87.50;;;;;;5010821;28;20350;-79
2023/05/05 13:51:05;;;;;;;;;;;25.50;88.60;;;;;;5002608;28;19914;-76
2023/05/05 13:53:31;;;;;;;;;;;25.70;87.00;;;;;;5010747;28;19917;-74
2023/05/05 13:55:56;;;;;;;;;;;26.00;86.90;;;;;;5012074;28;20300;-74
2023/05/05 13:58:22;;;;;;;;;;;26.10;86.50;;;;;;5013268;28;19905;-75
2023/05/05 14:00:47;;;;;;;;;;;26.50;87.30;;;;;;4994756;28;20225;-76
2023/05/05 14:03:13;;;;;;;;;;;26.90;85.80;;;;;;4992881;28;20013;-73
2023/05/05 14:05:41;;;;;;;;;;;27.10;84.40;;;;;;5008157;28;20421;-72
2023/05/05 14:08:07;;;;;;;;;;;27.00;84.10;;;;;;4997427;28;19909;-74
2023/05/05 14:10:32;;;;;;;;;;;26.70;83.80;;;;;;4995919;28;19906;-75
2023/05/05 14:12:58;;;;;;;;;;;26.20;84.40;;;;;;4990134;28;23422;-74
2023/05/05 14:15:24;;;;;;;;;;;25.70;85.90;;;;;;5007480;28;19960;-74
2023/05/05 14:17:49;;;;;;;;;;;25.30;86.60;;;;;;5011697;28;19936;-75
2023/05/05 14:20:15;;;;;;;;;;;25.00;87.10;;;;;;5012789;28;19917;-75
2023/05/05 14:22:41;;;;;;;;;;;24.60;87.80;;;;;;5005307;28;19989;-75
2023/05/05 14:25:06;;;;;;;;;;;24.40;88.90;;;;;;5008603;28;19910;-77
2023/05/05 14:27:32;;;;;;;;;;;24.10;89.10;;;;;;5012428;28;19905;-73
2023/05/05 14:29:57;;;;;;;;;;;23.90;90.00;;;;;;5012277;28;19909;-74
2023/05/05 14:32:23;;;;;;;;;;;23.60;90.30;;;;;;4991160;28;20384;-74
2023/05/05 14:34:48;;;;;;;;;;;23.40;90.50;;;;;;5007275;28;19924;-74
2023/05/05 14:37:14;;;;;;;;;;;23.30;90.70;;;;;;4997398;28;19916;-73
2023/05/05 14:39:39;;;;;;;;;;;23.20;91.20;;;;;;5005180;28;19983;-74
2023/05/05 14:42:05;;;;;;;;;;;23.10;91.20;;;;;;4997742;28;19912;-73
2023/05/05 14:44:30;;;;;;;;;;;22.80;91.20;;;;;;5007695;28;19909;-74
2023/05/05 14:46:56;;;;;;;;;;;22.70;91.30;;;;;;5001585;28;19985;-74
2023/05/05 14:49:21;;;;;;;;;;;22.50;91.50;;;;;;4974035;28;19917;-74
2023/05/05 14:51:47;;;;;;;;;;;22.30;92.20;;;;;;4990997;28;19906;-76
2023/05/05 14:54:12;;;;;;;;;;;22.30;92.10;;;;;;4992474;28;20351;-74
2023/05/05 14:56:38;;;;;;;;;;;22.20;92.40;;;;;;4991169;28;19910;-70
2023/05/05 14:59:03;;;;;;;;;;;22.10;92.10;;;;;;4992572;28;19941;-74
2023/05/05 15:01:29;;;;;;;;;;;22.00;92.50;;;;;;4991928;28;19918;-74
2023/05/05 15:03:55;;;;;;;;;;;21.90;92.90;;;;;;4987790;28;19972;-74
2023/05/05 15:06:21;;;;;;;;;;;21.80;92.70;;;;;;5012367;28;19913;-76
2023/05/05 15:08:46;;;;;;;;;;;21.80;92.80;;;;;;5010992;28;19913;-73
2023/05/05 15:11:12;;;;;;;;;;;21.70;92.70;;;;;;4993477;28;19913;-74
2023/05/05 15:13:40;;;;;;;;;;;21.70;92.70;;;;;;4992711;28;19906;-72
2023/05/05 15:16:06;;;;;;;;;;;21.70;92.80;;;;;;5011290;28;20354;-73
2023/05/05 15:18:31;;;;;;;;;;;21.60;93.30;;;;;;5010612;28;20215;-71
2023/05/05 15:20:57;;;;;;;;;;;21.50;93.70;;;;;;5004201;28;19917;-71
2023/05/05 15:23:22;;;;;;;;;;;21.40;93.90;;;;;;5004585;28;19936;-72
2023/05/05 15:25:48;;;;;;;;;;;21.40;94.00;;;;;;5010061;28;19952;-71
2023/05/05 15:28:13;;;;;;;;;;;21.40;94.20;;;;;;4996588;28;19909;-73
2023/05/05 15:30:39;;;;;;;;;;;21.40;94.20;;;;;;4992409;28;19963;-73
2023/05/05 15:33:04;;;;;;;;;;;21.40;94.50;;;;;;4990207;28;20000;-74
2023/05/05 15:35:30;;;;;;;;;;;21.30;94.80;;;;;;4992695;28;19968;-76
2023/05/05 15:37:55;;;;;;;;;;;21.20;95.50;;;;;;4986541;28;19980;-73
2023/05/05 15:40:21;;;;;;;;;;;21.10;95.70;;;;;;5001738;28;20350;-75
2023/05/05 15:42:48;;;;;;;;;;;21.10;95.40;;;;;;5006333;28;19913;-72
2023/05/05 15:45:15;;;;;;;;;;;21.10;96.00;;;;;;4990845;28;19980;-74
2023/05/05 15:47:40;;;;;;;;;;;21.00;95.80;;;;;;4990377;28;19996;-73
2023/05/05 15:50:06;;;;;;;;;;;20.90;96.30;;;;;;4991757;28;19997;-73
2023/05/05 15:52:32;;;;;;;;;;;20.80;96.40;;;;;;4983371;28;19990;-74
2023/05/05 15:54:57;;;;;;;;;;;20.70;96.40;;;;;;5002268;28;19914;-73
2023/05/05 15:57:22;;;;;;;;;;;20.60;97.20;;;;;;4986946;28;19945;-73
2023/05/05 15:59:51;;;;;;;;;;;20.20;98.70;;;;;;5000013;28;20009;-73
2023/05/05 16:02:18;;;;;;;;;;;19.80;99.60;;;;;;4990475;28;19924;-72
2023/05/05 16:04:43;;;;;;;;;;;19.10;99.90;;;;;;4990564;28;19906;-72
2023/05/05 16:07:10;;;;;;;;;;;;;;;;;;4990929;28;19973;-77